Time;durP1;ratioP1;P1;durP2;ratioP2;P2;SDS_P1;SDS_P2;PMS_P1;PMS_P2;Temp;Humidity;BMP_temperature;BMP_pressure;BME280_temperature;BME280_humidity;BME280_pressure;Samples;Min_cycle;Max_cycle;Signal;HPM_P1;HPM_P2
2021/04/29 00:01:43;;;;;;;13.35;9.30;;;11.80;99.90;;;;;;5038510;28;20318;-81
2021/04/29 00:04:12;;;;;;;18.48;9.75;;;11.80;99.90;;;;;;5035132;28;20404;-82
2021/04/29 00:06:38;;;;;;;16.65;9.15;;;11.80;99.90;;;;;;5036510;28;20044;-82
2021/04/29 00:09:05;;;;;;;15.70;9.27;;;11.80;99.90;;;;;;5028286;28;20219;-83
2021/04/29 00:11:32;;;;;;;21.20;9.98;;;11.90;99.90;;;;;;5027904;28;20040;-81
2021/04/29 00:13:58;;;;;;;20.60;9.75;;;11.90;99.90;;;;;;5030529;28;20082;-82
2021/04/29 00:16:24;;;;;;;17.55;9.95;;;11.90;99.90;;;;;;5026975;28;20148;-81
2021/04/29 00:18:49;;;;;;;19.67;10.07;;;11.90;99.90;;;;;;5030101;28;20041;-81
2021/04/29 00:21:15;;;;;;;21.67;11.07;;;11.90;99.90;;;;;;5037074;28;20105;-78
2021/04/29 00:23:41;;;;;;;19.33;9.95;;;11.90;99.90;;;;;;5030890;28;20041;-80
2021/04/29 00:26:06;;;;;;;18.83;10.82;;;12.00;99.90;;;;;;5035868;28;20033;-81
2021/04/29 00:28:32;;;;;;;15.88;9.25;;;12.00;99.90;;;;;;5032139;28;20052;-80
2021/04/29 00:30:57;;;;;;;17.50;10.63;;;12.00;99.90;;;;;;5033431;28;20061;-80
2021/04/29 00:33:23;;;;;;;23.98;11.18;;;12.00;99.90;;;;;;5039848;28;20034;-80
2021/04/29 00:35:49;;;;;;;29.05;12.18;;;12.00;99.90;;;;;;5036527;28;20052;-80
2021/04/29 00:38:16;;;;;;;20.33;10.13;;;12.10;99.90;;;;;;5031888;28;20072;-80
2021/04/29 00:40:42;;;;;;;19.98;9.52;;;12.00;99.90;;;;;;5037555;28;20049;-79
2021/04/29 00:43:14;;;;;;;19.98;10.00;;;12.00;99.90;;;;;;5032750;28;20041;-79
2021/04/29 00:45:40;;;;;;;20.50;10.63;;;12.10;99.90;;;;;;5028119;28;20052;-78
2021/04/29 00:48:07;;;;;;;17.75;11.35;;;12.10;99.90;;;;;;5034466;28;20519;-79
2021/04/29 00:50:32;;;;;;;17.67;10.25;;;12.20;99.90;;;;;;5030062;28;20037;-78
2021/04/29 00:52:58;;;;;;;18.25;10.50;;;12.10;99.90;;;;;;5037563;28;20053;-79
2021/04/29 00:55:24;;;;;;;17.17;9.00;;;12.10;99.90;;;;;;5036399;28;20037;-79
2021/04/29 00:57:49;;;;;;;19.42;10.38;;;12.10;99.90;;;;;;5029800;28;20034;-78
2021/04/29 01:00:16;;;;;;;18.80;10.25;;;12.20;99.90;;;;;;5032880;28;20060;-79
2021/04/29 01:02:48;;;;;;;16.10;10.13;;;12.10;99.90;;;;;;5030319;28;20049;-79
2021/04/29 01:05:19;;;;;;;19.08;9.63;;;12.20;99.90;;;;;;5034569;28;20777;-79
2021/04/29 01:07:51;;;;;;;18.08;9.65;;;12.20;99.90;;;;;;5035712;28;20042;-79
2021/04/29 01:10:33;;;;;;;15.18;9.10;;;12.20;99.90;;;;;;5026944;28;20038;-77
2021/04/29 01:13:07;;;;;;;16.10;9.57;;;12.20;99.90;;;;;;5026252;28;20097;-78
2021/04/29 01:15:37;;;;;;;18.13;9.38;;;12.30;99.90;;;;;;5028961;28;20044;-79
2021/04/29 01:18:03;;;;;;;16.95;8.80;;;12.30;99.90;;;;;;5031130;28;20043;-79
2021/04/29 01:21:00;;;;;;;19.77;9.93;;;12.20;99.90;;;;;;5036442;28;20045;-80
2021/04/29 01:23:43;;;;;;;13.60;9.05;;;12.30;99.90;;;;;;5022804;28;20055;-81
2021/04/29 01:26:13;;;;;;;14.93;9.40;;;12.30;99.90;;;;;;5031980;28;20033;-81
2021/04/29 01:28:39;;;;;;;16.13;9.80;;;12.30;99.90;;;;;;5034263;28;20029;-81
2021/04/29 01:31:05;;;;;;;14.65;7.22;;;12.30;99.90;;;;;;5032386;28;20041;-79
2021/04/29 01:33:31;;;;;;;14.60;8.50;;;12.30;99.90;;;;;;5026550;28;20038;-79
2021/04/29 01:35:57;;;;;;;16.17;8.68;;;12.40;99.90;;;;;;5032483;28;20037;-79
2021/04/29 01:38:23;;;;;;;13.65;8.23;;;12.40;99.90;;;;;;5032982;28;20061;-79
2021/04/29 01:40:49;;;;;;;12.52;7.68;;;12.30;99.90;;;;;;5027551;28;20060;-80
2021/04/29 01:43:15;;;;;;;10.88;7.10;;;12.30;99.90;;;;;;5029941;28;20064;-81
2021/04/29 01:45:42;;;;;;;10.30;7.13;;;12.30;99.90;;;;;;5031331;28;20045;-80
2021/04/29 01:48:09;;;;;;;12.45;6.40;;;12.40;99.90;;;;;;5032170;28;20030;-80
2021/04/29 01:50:36;;;;;;;10.90;6.20;;;12.30;99.90;;;;;;5026607;28;20540;-81
2021/04/29 01:53:04;;;;;;;14.00;6.88;;;12.30;99.90;;;;;;5031098;28;20105;-80
2021/04/29 01:55:31;;;;;;;13.77;5.82;;;12.30;99.90;;;;;;5034613;28;20043;-81
2021/04/29 01:57:56;;;;;;;10.05;6.03;;;12.30;99.90;;;;;;5031791;28;20037;-80
2021/04/29 02:00:22;;;;;;;9.93;6.25;;;12.30;99.90;;;;;;5027090;28;20095;-81
2021/04/29 02:02:48;;;;;;;7.32;5.30;;;12.30;99.90;;;;;;5039103;28;20065;-80
2021/04/29 02:05:15;;;;;;;10.20;5.53;;;12.30;99.90;;;;;;5025242;28;20077;-79
2021/04/29 02:07:40;;;;;;;8.73;5.03;;;12.30;99.90;;;;;;5040394;28;20309;-80
2021/04/29 02:10:07;;;;;;;7.65;4.80;;;12.30;99.90;;;;;;5030174;28;20029;-78
2021/04/29 02:12:38;;;;;;;9.65;4.53;;;12.30;99.90;;;;;;5028507;28;20045;-78
2021/04/29 02:15:08;;;;;;;8.05;4.65;;;12.20;99.90;;;;;;5039757;28;20037;-78
2021/04/29 02:17:55;;;;;;;8.23;4.90;;;12.30;99.90;;;;;;5038524;28;20171;-79
2021/04/29 02:20:22;;;;;;;6.22;4.53;;;12.20;99.90;;;;;;5038900;28;20042;-80
2021/04/29 02:22:49;;;;;;;7.93;3.67;;;12.20;99.90;;;;;;5034536;28;20056;-81
2021/04/29 02:25:15;;;;;;;6.22;3.83;;;12.20;99.90;;;;;;5035578;28;20033;-81
2021/04/29 02:27:42;;;;;;;5.95;3.65;;;12.20;99.90;;;;;;5025041;28;20256;-79
2021/04/29 02:30:16;;;;;;;4.45;3.03;;;12.20;99.90;;;;;;5032597;28;20099;-79
2021/04/29 02:32:42;;;;;;;4.85;3.05;;;12.20;99.90;;;;;;5035179;28;20072;-80
2021/04/29 02:35:11;;;;;;;6.28;2.63;;;12.20;99.90;;;;;;5036211;28;20046;-80
2021/04/29 02:37:37;;;;;;;2.90;1.92;;;12.20;99.90;;;;;;5033847;28;20144;-79
2021/04/29 02:40:06;;;;;;;2.80;1.83;;;12.20;99.90;;;;;;5031995;28;20041;-79
2021/04/29 02:42:32;;;;;;;2.55;1.52;;;12.20;99.90;;;;;;5024648;28;20041;-79
2021/04/29 02:44:58;;;;;;;3.15;1.67;;;12.30;99.90;;;;;;5034511;28;20029;-80
2021/04/29 02:47:24;;;;;;;3.95;1.48;;;12.30;99.90;;;;;;5028725;28;20041;-79
2021/04/29 02:49:49;;;;;;;2.15;1.27;;;12.30;99.90;;;;;;5026658;28;20149;-79
2021/04/29 02:52:15;;;;;;;2.55;1.38;;;12.30;99.90;;;;;;5033651;28;20064;-79
2021/04/29 02:54:42;;;;;;;4.93;2.40;;;12.30;99.90;;;;;;5032697;28;20037;-79
2021/04/29 02:57:07;;;;;;;3.63;2.85;;;12.30;99.90;;;;;;5033819;28;20029;-79
2021/04/29 02:59:40;;;;;;;3.60;2.63;;;12.20;99.90;;;;;;5035093;28;20516;-78
2021/04/29 03:02:07;;;;;;;3.72;2.38;;;12.10;99.90;;;;;;5030951;28;20140;-80
2021/04/29 03:04:33;;;;;;;3.13;1.50;;;12.00;99.90;;;;;;5034790;28;21073;-80
2021/04/29 03:06:59;;;;;;;3.20;1.40;;;12.00;99.90;;;;;;5033349;28;20041;-79
2021/04/29 03:09:25;;;;;;;2.45;1.17;;;11.80;99.90;;;;;;5039856;28;20041;-79
2021/04/29 03:11:50;;;;;;;3.58;1.45;;;11.80;99.90;;;;;;5037316;28;20743;-81
2021/04/29 03:14:16;;;;;;;2.10;1.55;;;11.80;99.90;;;;;;5034201;28;20614;-80
2021/04/29 03:16:41;;;;;;;2.42;1.27;;;11.80;99.90;;;;;;5031488;28;20428;-79
2021/04/29 03:19:07;;;;;;;1.00;0.80;;;11.70;99.90;;;;;;5032724;28;20029;-80
2021/04/29 03:21:33;;;;;;;0.93;0.82;;;11.70;99.90;;;;;;5038373;28;20135;-80
2021/04/29 03:23:58;;;;;;;1.73;0.98;;;11.70;99.90;;;;;;5034224;28;20119;-79
2021/04/29 03:26:24;;;;;;;1.17;0.68;;;11.60;99.90;;;;;;5034411;28;20059;-79
2021/04/29 03:28:50;;;;;;;1.23;0.90;;;11.60;99.90;;;;;;5049027;28;20048;-80
2021/04/29 03:31:15;;;;;;;3.63;0.80;;;11.60;99.90;;;;;;5037934;28;20052;-80
2021/04/29 03:33:41;;;;;;;1.17;0.70;;;11.60;99.90;;;;;;5030900;28;20112;-79
2021/04/29 03:36:06;;;;;;;1.42;0.88;;;11.60;99.90;;;;;;5032890;28;20062;-80
2021/04/29 03:38:32;;;;;;;1.55;0.63;;;11.60;99.90;;;;;;5029016;28;20101;-80
2021/04/29 03:40:57;;;;;;;2.63;0.60;;;11.50;99.90;;;;;;5033765;28;20033;-80
2021/04/29 03:43:23;;;;;;;0.80;0.45;;;11.50;99.90;;;;;;5037642;28;20045;-80
2021/04/29 03:45:48;;;;;;;1.23;0.50;;;11.40;99.90;;;;;;5033727;28;20041;-79
2021/04/29 03:48:14;;;;;;;0.85;0.57;;;11.40;99.90;;;;;;5028511;28;20037;-80
2021/04/29 03:50:40;;;;;;;1.40;0.68;;;11.40;99.90;;;;;;5031989;28;20049;-79
2021/04/29 03:53:05;;;;;;;3.00;0.60;;;11.30;99.90;;;;;;5033581;28;20057;-80
2021/04/29 03:55:31;;;;;;;1.33;0.70;;;11.30;99.90;;;;;;5028268;28;20531;-80
2021/04/29 03:57:56;;;;;;;1.27;0.85;;;11.30;99.90;;;;;;5029801;28;20033;-79
2021/04/29 04:00:22;;;;;;;1.13;0.45;;;11.30;99.90;;;;;;5035202;28;20033;-81
2021/04/29 04:02:48;;;;;;;1.00;0.70;;;11.30;99.90;;;;;;5027154;28;20038;-79
2021/04/29 04:05:13;;;;;;;3.08;0.55;;;11.30;99.90;;;;;;5025038;28;20120;-80
2021/04/29 04:07:39;;;;;;;1.30;0.70;;;11.10;99.90;;;;;;5027318;28;20037;-79
2021/04/29 04:10:07;;;;;;;1.50;0.68;;;11.20;99.90;;;;;;5031743;28;20034;-79
2021/04/29 04:12:33;;;;;;;2.70;0.73;;;11.20;99.90;;;;;;5033029;28;20381;-80
2021/04/29 04:14:58;;;;;;;1.20;0.70;;;11.10;99.90;;;;;;5032806;28;20069;-79
2021/04/29 04:17:24;;;;;;;1.52;0.80;;;11.10;99.90;;;;;;5039076;28;20036;-82
2021/04/29 04:19:49;;;;;;;1.90;0.60;;;11.00;99.90;;;;;;5032582;28;20044;-81
2021/04/29 04:22:15;;;;;;;2.85;0.60;;;11.00;99.90;;;;;;5026360;28;20496;-81
2021/04/29 04:24:40;;;;;;;1.45;0.60;;;11.00;99.90;;;;;;5035889;28;22450;-81
2021/04/29 04:27:06;;;;;;;0.90;0.65;;;10.90;99.90;;;;;;5032535;28;20061;-81
2021/04/29 04:29:33;;;;;;;1.23;1.02;;;11.00;99.90;;;;;;5034077;28;20120;-79
2021/04/29 04:31:59;;;;;;;2.22;0.90;;;10.90;99.90;;;;;;5031904;28;20060;-79
2021/04/29 04:34:24;;;;;;;2.13;0.90;;;10.80;99.90;;;;;;5034308;28;20037;-80
2021/04/29 04:36:50;;;;;;;1.58;1.10;;;10.90;99.90;;;;;;5032429;28;20034;-80
2021/04/29 04:39:15;;;;;;;2.45;0.77;;;10.90;99.90;;;;;;5032486;28;20041;-82
2021/04/29 04:41:41;;;;;;;1.58;0.85;;;10.90;99.90;;;;;;5037245;28;20052;-78
2021/04/29 04:44:07;;;;;;;2.25;1.17;;;10.90;99.90;;;;;;5039056;28;20042;-79
2021/04/29 04:46:33;;;;;;;2.63;1.55;;;10.90;99.90;;;;;;5037985;28;20068;-80
2021/04/29 04:48:58;;;;;;;2.42;1.20;;;11.00;99.90;;;;;;5030589;28;20042;-80
2021/04/29 04:51:24;;;;;;;2.58;1.13;;;11.00;99.90;;;;;;5036374;28;20542;-80
2021/04/29 04:53:49;;;;;;;2.08;1.20;;;11.00;99.90;;;;;;5034832;28;20345;-78
2021/04/29 04:56:15;;;;;;;1.08;0.80;;;11.00;99.90;;;;;;5037244;28;20066;-79
2021/04/29 04:58:40;;;;;;;1.45;0.98;;;10.90;99.90;;;;;;5031520;28;20050;-78
2021/04/29 05:01:06;;;;;;;1.73;1.30;;;11.10;99.90;;;;;;5031588;28;20037;-80
2021/04/29 05:03:32;;;;;;;4.18;1.55;;;11.00;99.90;;;;;;5042005;28;20048;-78
2021/04/29 05:05:58;;;;;;;3.50;1.20;;;11.00;99.90;;;;;;5045614;28;20342;-82
2021/04/29 05:08:24;;;;;;;1.67;0.90;;;11.20;99.90;;;;;;5034164;28;20057;-82
2021/04/29 05:10:49;;;;;;;2.13;1.05;;;11.10;99.90;;;;;;5034924;28;20029;-81
2021/04/29 05:13:15;;;;;;;3.70;1.20;;;11.10;99.90;;;;;;5032750;28;20529;-80
2021/04/29 05:15:40;;;;;;;2.40;1.05;;;11.20;99.90;;;;;;5023836;28;20741;-81
2021/04/29 05:18:06;;;;;;;3.25;1.30;;;11.20;99.90;;;;;;5029817;28;20038;-81
2021/04/29 05:20:34;;;;;;;5.10;1.58;;;11.20;99.90;;;;;;5032538;28;20072;-82
2021/04/29 05:22:59;;;;;;;1.75;1.40;;;11.30;99.90;;;;;;5046302;28;20045;-84
2021/04/29 05:25:25;;;;;;;2.65;1.77;;;11.30;99.90;;;;;;5048895;28;20041;-85
2021/04/29 05:27:51;;;;;;;3.47;1.70;;;11.30;99.90;;;;;;5033136;28;20069;-81
2021/04/29 05:30:18;;;;;;;2.10;1.58;;;11.40;99.90;;;;;;5042234;28;20052;-81
2021/04/29 05:32:43;;;;;;;4.18;1.73;;;11.40;99.90;;;;;;5037258;28;20034;-82
2021/04/29 05:35:09;;;;;;;4.88;2.25;;;11.40;99.90;;;;;;5034670;28;20068;-82
2021/04/29 05:37:35;;;;;;;3.33;1.83;;;11.40;99.90;;;;;;5032713;28;20045;-82
2021/04/29 05:40:01;;;;;;;7.03;2.38;;;11.40;99.90;;;;;;5037784;28;20064;-84
2021/04/29 05:42:26;;;;;;;4.15;2.20;;;11.40;99.90;;;;;;5035339;28;20034;-82
2021/04/29 05:44:52;;;;;;;5.35;2.75;;;11.30;99.90;;;;;;5036215;28;20072;-81
2021/04/29 05:47:17;;;;;;;10.38;3.03;;;11.40;99.90;;;;;;5036435;28;20061;-83
2021/04/29 05:49:43;;;;;;;8.02;2.25;;;11.40;99.90;;;;;;5032160;28;20041;-82
2021/04/29 05:52:12;;;;;;;6.97;2.65;;;11.50;99.90;;;;;;5037449;28;20048;-82
2021/04/29 05:54:38;;;;;;;6.72;2.83;;;11.50;99.90;;;;;;5037479;28;20041;-82
2021/04/29 05:57:04;;;;;;;5.88;3.13;;;11.60;99.90;;;;;;5039368;28;20068;-79
2021/04/29 05:59:30;;;;;;;3.70;2.75;;;11.50;99.90;;;;;;5034182;28;20029;-82
2021/04/29 06:01:56;;;;;;;9.52;2.83;;;11.60;99.90;;;;;;5033892;28;20492;-80
2021/04/29 06:04:21;;;;;;;9.93;2.92;;;11.60;99.90;;;;;;5036783;28;20041;-81
2021/04/29 06:06:50;;;;;;;5.53;2.80;;;11.70;99.90;;;;;;5033738;28;20037;-82
2021/04/29 06:09:17;;;;;;;12.23;3.42;;;11.70;99.90;;;;;;5035966;28;20037;-80
2021/04/29 06:11:42;;;;;;;6.93;2.88;;;11.80;99.90;;;;;;5033628;28;20044;-81
2021/04/29 06:14:11;;;;;;;9.85;3.72;;;11.80;99.90;;;;;;5039272;28;20034;-81
2021/04/29 06:16:37;;;;;;;8.90;3.08;;;11.90;99.90;;;;;;5034409;28;20038;-79
2021/04/29 06:19:03;;;;;;;5.75;3.05;;;12.00;99.90;;;;;;5036649;28;20112;-79
2021/04/29 06:21:28;;;;;;;7.60;3.15;;;12.10;99.90;;;;;;5033870;28;20283;-79
2021/04/29 06:23:54;;;;;;;8.38;3.13;;;12.10;99.90;;;;;;5032620;28;20069;-82
2021/04/29 06:26:20;;;;;;;6.72;2.97;;;12.20;99.90;;;;;;5035234;28;20041;-82
2021/04/29 06:28:45;;;;;;;6.90;3.25;;;12.30;99.30;;;;;;5035033;28;20038;-83
2021/04/29 06:31:11;;;;;;;7.75;3.30;;;12.40;99.90;;;;;;5036225;28;20072;-80
2021/04/29 06:33:37;;;;;;;4.97;3.25;;;12.50;99.90;;;;;;5035700;28;20044;-80
2021/04/29 06:36:02;;;;;;;9.98;3.78;;;12.50;98.30;;;;;;5042064;28;20056;-79
2021/04/29 06:38:28;;;;;;;9.27;3.40;;;12.50;97.10;;;;;;5039438;28;20045;-78
2021/04/29 06:40:54;;;;;;;4.65;2.90;;;12.50;97.10;;;;;;5039027;28;20041;-80
2021/04/29 06:43:19;;;;;;;8.48;3.70;;;12.60;96.70;;;;;;5039509;28;20053;-81
2021/04/29 06:45:45;;;;;;;13.32;3.33;;;12.80;96.90;;;;;;5029585;28;20046;-82
2021/04/29 06:48:11;;;;;;;11.02;3.15;;;13.10;96.20;;;;;;5034561;28;20083;-82
2021/04/29 06:50:38;;;;;;;12.63;4.50;;;13.20;94.60;;;;;;5034564;28;20034;-83
2021/04/29 06:53:04;;;;;;;6.00;3.38;;;13.60;93.80;;;;;;5042074;28;20816;-85
2021/04/29 06:55:31;;;;;;;8.95;3.97;;;14.10;93.30;;;;;;5040250;28;20093;-83
2021/04/29 06:57:57;;;;;;;14.07;4.22;;;14.00;87.60;;;;;;5046435;28;20041;-83
2021/04/29 07:00:24;;;;;;;9.25;4.55;;;14.10;87.70;;;;;;5041560;28;20205;-83
2021/04/29 07:02:50;;;;;;;6.47;3.60;;;14.00;84.70;;;;;;5036270;28;20634;-83
2021/04/29 07:05:16;;;;;;;11.13;4.22;;;14.30;86.10;;;;;;5040679;28;20959;-85
2021/04/29 07:07:42;;;;;;;6.47;3.45;;;14.60;84.40;;;;;;5034396;28;20037;-84
2021/04/29 07:10:08;;;;;;;8.32;3.42;;;14.80;80.50;;;;;;5040479;28;20034;-85
2021/04/29 07:12:34;;;;;;;14.27;4.50;;;14.70;79.70;;;;;;5037731;28;20033;-82
2021/04/29 07:14:59;;;;;;;7.28;4.10;;;14.40;79.00;;;;;;5042097;28;20060;-82
2021/04/29 07:17:25;;;;;;;8.75;4.25;;;14.50;79.90;;;;;;5038957;28;20049;-82
2021/04/29 07:19:50;;;;;;;11.13;4.43;;;14.40;81.10;;;;;;5037997;28;20064;-84
2021/04/29 07:22:16;;;;;;;9.25;4.15;;;14.40;79.90;;;;;;5045738;28;20316;-84
2021/04/29 07:24:43;;;;;;;12.00;4.90;;;14.20;79.40;;;;;;5042159;28;20029;-83
2021/04/29 07:27:09;;;;;;;11.40;4.10;;;14.40;80.00;;;;;;5039269;28;20034;-84
2021/04/29 07:29:34;;;;;;;11.82;4.32;;;14.30;80.40;;;;;;5039991;28;20099;-82
2021/04/29 07:32:01;;;;;;;13.13;4.60;;;14.40;80.60;;;;;;5040480;28;20061;-82
2021/04/29 07:34:27;;;;;;;12.13;4.97;;;14.30;78.90;;;;;;5038726;28;20085;-82
2021/04/29 07:36:52;;;;;;;10.52;4.43;;;14.50;79.10;;;;;;5038155;28;20045;-84
2021/04/29 07:39:18;;;;;;;9.43;4.32;;;14.50;79.10;;;;;;5037680;28;20033;-82
2021/04/29 07:41:44;;;;;;;9.48;5.28;;;14.60;79.50;;;;;;5038913;28;20473;-81
2021/04/29 07:44:09;;;;;;;10.70;4.70;;;14.60;80.20;;;;;;5030971;28;20045;-83
2021/04/29 07:46:35;;;;;;;11.13;4.80;;;14.60;82.50;;;;;;5031810;28;20050;-83
2021/04/29 07:49:01;;;;;;;9.25;4.75;;;14.80;79.90;;;;;;5038372;28;20557;-83
2021/04/29 07:51:27;;;;;;;10.70;5.07;;;15.00;78.70;;;;;;5035968;28;20044;-83
2021/04/29 07:53:52;;;;;;;19.13;5.13;;;14.90;74.80;;;;;;5038333;28;20041;-83
2021/04/29 07:56:18;;;;;;;13.32;4.65;;;15.10;74.30;;;;;;5034844;28;20030;-83
2021/04/29 07:58:44;;;;;;;13.25;4.50;;;15.10;75.00;;;;;;5034841;28;20050;-82
2021/04/29 08:01:10;;;;;;;7.85;4.03;;;15.00;74.20;;;;;;5041445;28;20042;-85
2021/04/29 08:03:36;;;;;;;14.00;4.70;;;15.40;78.40;;;;;;5039888;28;20065;-82
2021/04/29 08:06:01;;;;;;;11.65;5.03;;;15.50;72.90;;;;;;5037506;28;20048;-79
2021/04/29 08:08:27;;;;;;;13.82;5.53;;;15.80;72.10;;;;;;5037592;28;20051;-78
2021/04/29 08:10:52;;;;;;;18.92;5.78;;;15.70;67.70;;;;;;5039898;28;20034;-81
2021/04/29 08:13:18;;;;;;;11.38;5.35;;;15.70;67.20;;;;;;5039981;28;20037;-82
2021/04/29 08:15:43;;;;;;;11.55;5.35;;;15.90;66.60;;;;;;5033289;28;20046;-82
2021/04/29 08:18:10;;;;;;;11.93;5.00;;;15.80;65.00;;;;;;5038312;28;20043;-83
2021/04/29 08:20:37;;;;;;;11.93;5.70;;;16.00;64.50;;;;;;5037325;28;20044;-83
2021/04/29 08:23:03;;;;;;;11.77;7.03;;;16.30;64.80;;;;;;5037035;28;20091;-83
2021/04/29 08:25:29;;;;;;;12.23;5.68;;;16.10;62.40;;;;;;5040859;28;20389;-82
2021/04/29 08:27:54;;;;;;;11.95;5.78;;;16.30;62.70;;;;;;5038662;28;20046;-82
2021/04/29 08:30:26;;;;;;;11.95;5.20;;;16.60;62.50;;;;;;5037925;28;20127;-81
2021/04/29 08:32:52;;;;;;;8.63;4.78;;;16.70;64.50;;;;;;5039882;28;20041;-84
2021/04/29 08:35:18;;;;;;;12.38;6.72;;;16.90;63.90;;;;;;5039057;28;20030;-83
2021/04/29 08:37:43;;;;;;;10.45;5.97;;;17.00;58.30;;;;;;5040828;28;20012;-86
2021/04/29 08:40:09;;;;;;;12.10;5.72;;;17.00;60.40;;;;;;5042431;28;20045;-84
2021/04/29 08:42:35;;;;;;;14.82;5.60;;;17.20;61.90;;;;;;5044280;28;20061;-85
2021/04/29 08:45:01;;;;;;;13.48;5.88;;;17.10;59.10;;;;;;5035118;28;20042;-82
2021/04/29 08:47:26;;;;;;;12.73;5.85;;;17.20;61.10;;;;;;5035930;28;20033;-81
2021/04/29 08:49:53;;;;;;;7.40;5.18;;;17.30;60.00;;;;;;5037177;28;20036;-81
2021/04/29 08:52:19;;;;;;;13.07;5.68;;;17.20;60.10;;;;;;5036312;28;20025;-82
2021/04/29 08:54:46;;;;;;;13.48;5.95;;;17.40;56.30;;;;;;5033635;28;20040;-82
2021/04/29 08:57:13;;;;;;;14.77;6.47;;;17.40;57.50;;;;;;5037891;28;20120;-83
2021/04/29 08:59:39;;;;;;;22.08;6.28;;;17.40;57.90;;;;;;5038522;28;20025;-82
2021/04/29 09:02:04;;;;;;;14.20;6.88;;;17.60;55.30;;;;;;5037862;28;20041;-81
2021/04/29 09:04:41;;;;;;;12.98;6.78;;;17.30;56.00;;;;;;5035987;28;20140;-83
2021/04/29 09:07:12;;;;;;;16.30;7.03;;;16.80;54.80;;;;;;5040581;28;20045;-83
2021/04/29 09:09:45;;;;;;;14.95;6.80;;;16.90;57.10;;;;;;5033114;28;20041;-82
2021/04/29 09:12:11;;;;;;;14.35;6.38;;;16.60;57.00;;;;;;5036367;28;20044;-82
2021/04/29 09:14:42;;;;;;;16.15;7.28;;;16.50;57.40;;;;;;5040601;28;20068;-83
2021/04/29 09:17:10;;;;;;;11.15;5.80;;;16.30;55.50;;;;;;5032256;28;20049;-83
2021/04/29 09:19:46;;;;;;;14.77;6.53;;;16.00;57.00;;;;;;5041181;28;20039;-84
2021/04/29 09:22:20;;;;;;;16.52;5.93;;;15.90;57.20;;;;;;5034665;28;20487;-82
2021/04/29 09:24:46;;;;;;;12.48;6.68;;;15.90;60.10;;;;;;5030749;28;20052;-82
2021/04/29 09:27:19;;;;;;;11.00;7.05;;;15.60;60.70;;;;;;5039928;28;20034;-84
2021/04/29 09:30:26;;;;;;;14.75;6.50;;;15.30;62.00;;;;;;5029974;28;20064;-83
2021/04/29 09:32:57;;;;;;;15.05;7.80;;;15.00;76.30;;;;;;5027525;28;20405;-83
2021/04/29 09:35:23;;;;;;;12.73;7.25;;;14.20;86.00;;;;;;5044788;28;20052;-83
2021/04/29 09:37:48;;;;;;;19.70;8.70;;;13.70;91.40;;;;;;5041269;28;20034;-83
2021/04/29 09:40:25;;;;;;;12.90;6.93;;;13.30;98.90;;;;;;5036836;28;20154;-83
2021/04/29 09:42:51;;;;;;;18.58;6.70;;;13.10;99.90;;;;;;5025833;28;20092;-83
2021/04/29 09:45:20;;;;;;;14.20;6.55;;;12.80;97.70;;;;;;5031205;28;20118;-84
2021/04/29 09:47:57;;;;;;;21.10;8.50;;;12.70;98.90;;;;;;5033184;28;20041;-83
2021/04/29 09:50:27;;;;;;;14.65;7.78;;;12.50;99.90;;;;;;5030566;28;20052;-84
2021/04/29 09:53:14;;;;;;;14.32;8.05;;;12.40;99.90;;;;;;5033624;28;20053;-84
2021/04/29 09:55:44;;;;;;;14.73;7.75;;;12.30;99.90;;;;;;5037063;28;20036;-84
2021/04/29 10:00:40;;;;;;;26.50;8.68;;;12.40;99.90;;;;;;5037318;28;20034;-85
2021/04/29 10:03:06;;;;;;;18.25;9.02;;;12.50;99.90;;;;;;5034557;28;20128;-84
2021/04/29 10:05:37;;;;;;;16.00;7.97;;;13.30;99.90;;;;;;5035353;28;20088;-85
2021/04/29 10:08:05;;;;;;;14.63;7.63;;;13.80;99.90;;;;;;5034591;28;20252;-84
2021/04/29 10:10:34;;;;;;;18.13;8.45;;;14.10;96.70;;;;;;5038696;28;20037;-85
2021/04/29 10:13:02;;;;;;;14.27;7.68;;;14.20;99.00;;;;;;5035508;28;20044;-85
2021/04/29 10:15:30;;;;;;;16.17;8.00;;;14.70;94.30;;;;;;5045343;28;20160;-88
2021/04/29 10:17:56;;;;;;;13.60;6.40;;;15.00;99.90;;;;;;5036953;28;20030;-86
2021/04/29 10:20:22;;;;;;;16.30;8.82;;;15.20;93.50;;;;;;5037223;28;20159;-86
2021/04/29 10:22:48;;;;;;;14.95;7.22;;;15.70;99.90;;;;;;5041490;28;20041;-88
2021/04/29 10:25:13;;;;;;;14.65;7.53;;;16.10;93.60;;;;;;5043365;28;20014;-85
2021/04/29 10:27:44;;;;;;;13.82;8.05;;;16.40;91.80;;;;;;5048105;28;20041;-82
2021/04/29 10:30:12;;;;;;;15.70;6.13;;;16.50;92.20;;;;;;5037618;28;20053;-83
2021/04/29 10:32:39;;;;;;;12.27;7.10;;;16.70;88.50;;;;;;5040628;28;20095;-82
2021/04/29 10:35:21;;;;;;;12.65;6.85;;;17.10;93.90;;;;;;5037969;28;20060;-81
2021/04/29 10:37:58;;;;;;;15.60;6.53;;;16.60;75.80;;;;;;5039058;28;20479;-81
2021/04/29 10:40:38;;;;;;;8.57;5.93;;;16.60;75.60;;;;;;5040006;28;20022;-82
2021/04/29 10:43:05;;;;;;;12.73;6.25;;;16.40;78.40;;;;;;5037840;28;20041;-82
2021/04/29 10:45:30;;;;;;;15.10;6.50;;;16.40;81.50;;;;;;5042834;28;20030;-80
2021/04/29 10:48:07;;;;;;;14.43;6.03;;;16.70;82.80;;;;;;5036857;28;20094;-82
2021/04/29 10:50:51;;;;;;;17.05;6.18;;;16.50;79.30;;;;;;5036344;28;20065;-80
2021/04/29 10:53:28;;;;;;;13.63;5.23;;;16.70;78.60;;;;;;5041020;28;20316;-83
2021/04/29 10:56:14;;;;;;;13.50;6.47;;;17.30;79.30;;;;;;5037632;28;20033;-83
2021/04/29 10:58:40;;;;;;;11.00;5.50;;;18.50;65.80;;;;;;5035019;28;20053;-81
2021/04/29 11:01:10;;;;;;;13.50;6.00;;;18.60;59.20;;;;;;5034470;28;20056;-82
2021/04/29 11:03:38;;;;;;;8.65;5.47;;;17.80;62.80;;;;;;5034768;28;20056;-81
2021/04/29 11:06:11;;;;;;;9.65;4.85;;;18.50;62.30;;;;;;5035935;28;20131;-82
2021/04/29 11:08:43;;;;;;;13.30;5.13;;;18.30;61.70;;;;;;5029504;28;20102;-82
2021/04/29 11:11:38;;;;;;;8.30;4.30;;;18.10;54.80;;;;;;5052220;28;20056;-82
2021/04/29 11:14:05;;;;;;;10.02;4.53;;;17.50;57.80;;;;;;5031650;28;20044;-81
2021/04/29 11:16:44;;;;;;;8.70;4.55;;;16.80;61.50;;;;;;5028891;28;20137;-82
2021/04/29 11:19:39;;;;;;;6.93;4.47;;;17.00;62.10;;;;;;5024245;28;20598;-82
2021/04/29 11:22:06;;;;;;;11.80;4.00;;;17.20;56.80;;;;;;5035665;28;20041;-81
2021/04/29 11:24:38;;;;;;;13.68;3.50;;;17.50;53.40;;;;;;5037758;28;20056;-83
2021/04/29 11:27:04;;;;;;;5.95;3.20;;;17.10;54.50;;;;;;5035118;28;20053;-83
2021/04/29 11:29:39;;;;;;;6.72;3.55;;;15.90;59.10;;;;;;5037550;28;20040;-83
2021/04/29 11:32:06;;;;;;;9.43;4.00;;;15.40;57.20;;;;;;5035707;28;20061;-82
2021/04/29 11:34:48;;;;;;;10.82;3.20;;;14.60;60.60;;;;;;5037216;28;20049;-82
2021/04/29 11:37:15;;;;;;;9.45;3.38;;;14.30;60.70;;;;;;5034273;28;20060;-83
2021/04/29 11:39:42;;;;;;;8.18;3.85;;;14.40;62.80;;;;;;5037901;28;20051;-82
2021/04/29 11:42:30;;;;;;;6.85;3.55;;;14.50;62.30;;;;;;5022884;28;20423;-81
2021/04/29 11:45:10;;;;;;;6.57;3.35;;;14.20;62.50;;;;;;5024399;28;20072;-83
2021/04/29 11:47:39;;;;;;;11.95;3.72;;;14.20;62.40;;;;;;5021775;28;20037;-82
2021/04/29 11:50:06;;;;;;;10.25;3.60;;;14.70;61.40;;;;;;5027278;28;20316;-82
2021/04/29 11:52:32;;;;;;;5.40;3.55;;;14.80;60.70;;;;;;5029130;28;20049;-82
2021/04/29 11:54:58;;;;;;;10.80;3.22;;;14.50;60.50;;;;;;5031723;28;22736;-82
2021/04/29 11:57:24;;;;;;;12.70;3.42;;;14.60;63.40;;;;;;5041953;28;20858;-81
2021/04/29 11:59:51;;;;;;;9.55;3.90;;;14.30;62.60;;;;;;5030840;28;20037;-82
2021/04/29 12:02:17;;;;;;;9.40;3.30;;;14.20;69.80;;;;;;5034841;28;20158;-83
2021/04/29 12:04:48;;;;;;;7.47;3.88;;;14.20;67.20;;;;;;5031278;28;20034;-84
2021/04/29 12:07:15;;;;;;;10.25;3.47;;;14.60;70.00;;;;;;5028945;28;20033;-83
2021/04/29 12:09:41;;;;;;;10.80;3.40;;;14.80;68.20;;;;;;5032337;28;20060;-82
2021/04/29 12:12:10;;;;;;;6.30;3.28;;;15.20;65.20;;;;;;5031761;28;20040;-84
2021/04/29 12:14:36;;;;;;;9.52;3.35;;;15.30;55.20;;;;;;5033342;28;20044;-81
2021/04/29 12:17:03;;;;;;;4.93;2.80;;;15.40;56.40;;;;;;5027769;28;20069;-82
2021/04/29 12:19:31;;;;;;;5.00;2.92;;;15.40;57.60;;;;;;5034898;28;20060;-82
2021/04/29 12:21:58;;;;;;;9.65;2.83;;;15.60;55.30;;;;;;5030293;28;20109;-82
2021/04/29 12:24:24;;;;;;;9.38;3.00;;;16.00;53.90;;;;;;5041360;28;20037;-84
2021/04/29 12:26:50;;;;;;;6.72;2.70;;;16.90;52.60;;;;;;5035232;28;20030;-82
2021/04/29 12:29:21;;;;;;;5.88;3.35;;;17.10;49.70;;;;;;5039136;28;20185;-82
2021/04/29 12:31:56;;;;;;;6.90;3.30;;;17.10;48.50;;;;;;5032446;28;20038;-82
2021/04/29 12:34:22;;;;;;;9.13;3.13;;;16.40;50.60;;;;;;5035963;28;20044;-82
2021/04/29 12:37:08;;;;;;;9.05;4.32;;;16.00;50.90;;;;;;5030913;28;20034;-82
2021/04/29 12:39:38;;;;;;;7.40;3.50;;;16.10;51.90;;;;;;5031979;28;20037;-81
2021/04/29 12:42:06;;;;;;;7.75;4.22;;;15.80;49.20;;;;;;5034456;28;20065;-83
2021/04/29 12:44:45;;;;;;;9.98;3.78;;;15.40;50.40;;;;;;5033413;28;20037;-83
2021/04/29 12:47:36;;;;;;;6.70;3.67;;;15.70;53.60;;;;;;5033108;28;20037;-83